sensor_id;sensor_type;location;lat;lon;timestamp;P1;durP1;ratioP1;P2;durP2;ratioP2
62401;SDS011;48440;51.224;22.506;2022-12-07T00:01:39;61.38;;;23.17;;
62401;SDS011;48440;51.224;22.506;2022-12-07T00:04:07;59.00;;;22.48;;
62401;SDS011;48440;51.224;22.506;2022-12-07T00:06:36;72.22;;;25.05;;
62401;SDS011;48440;51.224;22.506;2022-12-07T00:09:07;62.38;;;23.40;;
62401;SDS011;48440;51.224;22.506;2022-12-07T00:11:35;73.65;;;24.75;;
62401;SDS011;48440;51.224;22.506;2022-12-07T00:14:02;68.60;;;24.90;;
62401;SDS011;48440;51.224;22.506;2022-12-07T00:16:31;72.22;;;24.30;;
62401;SDS011;48440;51.224;22.506;2022-12-07T00:18:59;73.53;;;25.83;;
62401;SDS011;48440;51.224;22.506;2022-12-07T00:21:29;74.53;;;25.00;;
62401;SDS011;48440;51.224;22.506;2022-12-07T00:24:00;78.18;;;25.15;;
62401;SDS011;48440;51.224;22.506;2022-12-07T00:26:27;71.93;;;25.17;;
62401;SDS011;48440;51.224;22.506;2022-12-07T00:28:55;67.45;;;25.27;;
62401;SDS011;48440;51.224;22.506;2022-12-07T00:31:23;80.22;;;24.33;;
62401;SDS011;48440;51.224;22.506;2022-12-07T00:33:51;74.45;;;23.83;;
62401;SDS011;48440;51.224;22.506;2022-12-07T00:36:20;67.95;;;25.10;;
62401;SDS011;48440;51.224;22.506;2022-12-07T00:38:47;63.67;;;25.13;;
62401;SDS011;48440;51.224;22.506;2022-12-07T00:41:16;71.05;;;24.48;;
62401;SDS011;48440;51.224;22.506;2022-12-07T00:43:45;65.15;;;22.98;;
62401;SDS011;48440;51.224;22.506;2022-12-07T00:46:11;66.70;;;24.48;;
62401;SDS011;48440;51.224;22.506;2022-12-07T00:48:37;71.80;;;24.73;;
62401;SDS011;48440;51.224;22.506;2022-12-07T00:51:03;74.40;;;25.42;;
62401;SDS011;48440;51.224;22.506;2022-12-07T00:53:29;71.20;;;25.00;;
62401;SDS011;48440;51.224;22.506;2022-12-07T00:55:56;76.47;;;24.17;;
62401;SDS011;48440;51.224;22.506;2022-12-07T00:58:22;68.50;;;25.08;;
62401;SDS011;48440;51.224;22.506;2022-12-07T01:00:48;76.85;;;24.52;;
62401;SDS011;48440;51.224;22.506;2022-12-07T01:03:15;73.45;;;24.38;;
62401;SDS011;48440;51.224;22.506;2022-12-07T01:05:48;68.13;;;24.73;;
62401;SDS011;48440;51.224;22.506;2022-12-07T01:08:15;71.57;;;25.88;;
62401;SDS011;48440;51.224;22.506;2022-12-07T01:10:41;66.05;;;25.00;;
62401;SDS011;48440;51.224;22.506;2022-12-07T01:13:06;73.85;;;26.15;;
62401;SDS011;48440;51.224;22.506;2022-12-07T01:15:32;62.40;;;24.60;;
62401;SDS011;48440;51.224;22.506;2022-12-07T01:17:57;70.68;;;23.65;;
62401;SDS011;48440;51.224;22.506;2022-12-07T01:20:23;74.93;;;25.65;;
62401;SDS011;48440;51.224;22.506;2022-12-07T01:22:48;68.20;;;24.42;;
62401;SDS011;48440;51.224;22.506;2022-12-07T01:25:14;61.20;;;22.70;;
62401;SDS011;48440;51.224;22.506;2022-12-07T01:27:40;65.32;;;22.98;;
62401;SDS011;48440;51.224;22.506;2022-12-07T01:30:06;59.50;;;23.63;;
62401;SDS011;48440;51.224;22.506;2022-12-07T01:32:32;72.35;;;25.00;;
62401;SDS011;48440;51.224;22.506;2022-12-07T01:34:58;69.00;;;24.75;;
62401;SDS011;48440;51.224;22.506;2022-12-07T01:37:23;60.60;;;23.52;;
62401;SDS011;48440;51.224;22.506;2022-12-07T01:39:49;66.30;;;23.92;;
62401;SDS011;48440;51.224;22.506;2022-12-07T01:42:16;63.67;;;22.70;;
62401;SDS011;48440;51.224;22.506;2022-12-07T01:47:47;59.90;;;22.67;;
62401;SDS011;48440;51.224;22.506;2022-12-07T01:50:17;66.07;;;26.00;;
62401;SDS011;48440;51.224;22.506;2022-12-07T01:52:45;65.65;;;25.10;;
62401;SDS011;48440;51.224;22.506;2022-12-07T01:55:15;69.65;;;25.30;;
62401;SDS011;48440;51.224;22.506;2022-12-07T01:57:47;62.78;;;24.17;;
62401;SDS011;48440;51.224;22.506;2022-12-07T02:00:15;65.60;;;23.70;;
62401;SDS011;48440;51.224;22.506;2022-12-07T02:05:14;53.83;;;22.35;;
62401;SDS011;48440;51.224;22.506;2022-12-07T02:07:42;61.40;;;23.33;;
62401;SDS011;48440;51.224;22.506;2022-12-07T02:10:14;57.08;;;22.52;;
62401;SDS011;48440;51.224;22.506;2022-12-07T02:12:42;54.30;;;21.77;;
62401;SDS011;48440;51.224;22.506;2022-12-07T02:15:12;59.95;;;24.05;;
62401;SDS011;48440;51.224;22.506;2022-12-07T02:17:44;45.83;;;20.13;;
62401;SDS011;48440;51.224;22.506;2022-12-07T02:20:36;49.20;;;20.88;;
62401;SDS011;48440;51.224;22.506;2022-12-07T02:31:31;34.97;;;16.65;;
62401;SDS011;48440;51.224;22.506;2022-12-07T02:34:00;33.60;;;14.82;;
62401;SDS011;48440;51.224;22.506;2022-12-07T02:36:34;31.10;;;13.27;;
62401;SDS011;48440;51.224;22.506;2022-12-07T02:39:07;28.23;;;11.25;;
62401;SDS011;48440;51.224;22.506;2022-12-07T02:41:44;24.27;;;9.68;;
62401;SDS011;48440;51.224;22.506;2022-12-07T02:44:16;18.67;;;9.30;;
62401;SDS011;48440;51.224;22.506;2022-12-07T02:46:50;22.98;;;9.43;;
62401;SDS011;48440;51.224;22.506;2022-12-07T02:49:23;21.20;;;9.18;;
62401;SDS011;48440;51.224;22.506;2022-12-07T02:51:51;20.00;;;9.20;;
62401;SDS011;48440;51.224;22.506;2022-12-07T02:54:18;22.83;;;9.43;;
62401;SDS011;48440;51.224;22.506;2022-12-07T02:57:04;22.52;;;10.27;;
62401;SDS011;48440;51.224;22.506;2022-12-07T02:59:37;22.70;;;9.55;;
62401;SDS011;48440;51.224;22.506;2022-12-07T03:07:51;23.67;;;9.65;;
62401;SDS011;48440;51.224;22.506;2022-12-07T03:15:40;23.42;;;9.98;;
62401;SDS011;48440;51.224;22.506;2022-12-07T03:18:07;20.45;;;8.93;;
62401;SDS011;48440;51.224;22.506;2022-12-07T03:20:37;21.27;;;10.15;;
62401;SDS011;48440;51.224;22.506;2022-12-07T03:23:06;22.90;;;9.13;;
62401;SDS011;48440;51.224;22.506;2022-12-07T03:25:35;19.73;;;9.18;;
62401;SDS011;48440;51.224;22.506;2022-12-07T03:28:07;18.88;;;10.10;;
62401;SDS011;48440;51.224;22.506;2022-12-07T03:33:31;19.70;;;7.70;;
62401;SDS011;48440;51.224;22.506;2022-12-07T03:38:44;17.17;;;7.65;;
62401;SDS011;48440;51.224;22.506;2022-12-07T03:41:34;18.25;;;8.40;;
62401;SDS011;48440;51.224;22.506;2022-12-07T03:43:59;16.00;;;7.30;;
62401;SDS011;48440;51.224;22.506;2022-12-07T03:46:29;19.73;;;8.02;;
62401;SDS011;48440;51.224;22.506;2022-12-07T03:57:26;16.48;;;7.60;;
62401;SDS011;48440;51.224;22.506;2022-12-07T03:59:54;17.33;;;7.25;;
62401;SDS011;48440;51.224;22.506;2022-12-07T04:02:22;16.63;;;7.68;;
62401;SDS011;48440;51.224;22.506;2022-12-07T04:04:48;17.80;;;7.45;;
62401;SDS011;48440;51.224;22.506;2022-12-07T04:07:14;19.15;;;7.85;;
62401;SDS011;48440;51.224;22.506;2022-12-07T04:09:40;18.40;;;7.85;;
62401;SDS011;48440;51.224;22.506;2022-12-07T04:12:05;17.10;;;7.82;;
62401;SDS011;48440;51.224;22.506;2022-12-07T04:14:34;20.02;;;7.45;;
62401;SDS011;48440;51.224;22.506;2022-12-07T04:16:59;14.70;;;6.93;;
62401;SDS011;48440;51.224;22.506;2022-12-07T04:19:26;12.63;;;6.40;;
62401;SDS011;48440;51.224;22.506;2022-12-07T04:21:54;16.00;;;7.78;;
62401;SDS011;48440;51.224;22.506;2022-12-07T04:24:19;15.18;;;7.70;;
62401;SDS011;48440;51.224;22.506;2022-12-07T04:26:46;15.82;;;7.68;;
62401;SDS011;48440;51.224;22.506;2022-12-07T04:29:12;13.60;;;7.40;;
62401;SDS011;48440;51.224;22.506;2022-12-07T04:31:37;12.10;;;6.85;;
62401;SDS011;48440;51.224;22.506;2022-12-07T04:34:04;14.60;;;7.93;;
62401;SDS011;48440;51.224;22.506;2022-12-07T04:36:30;15.48;;;7.53;;
62401;SDS011;48440;51.224;22.506;2022-12-07T04:38:56;19.50;;;8.73;;
62401;SDS011;48440;51.224;22.506;2022-12-07T04:41:21;16.77;;;7.88;;
62401;SDS011;48440;51.224;22.506;2022-12-07T04:43:57;17.95;;;7.60;;
62401;SDS011;48440;51.224;22.506;2022-12-07T04:46:27;17.27;;;7.43;;
62401;SDS011;48440;51.224;22.506;2022-12-07T04:48:54;18.20;;;8.15;;
62401;SDS011;48440;51.224;22.506;2022-12-07T04:51:20;16.70;;;7.88;;
62401;SDS011;48440;51.224;22.506;2022-12-07T04:53:50;13.25;;;7.38;;
62401;SDS011;48440;51.224;22.506;2022-12-07T04:56:16;15.13;;;7.65;;
62401;SDS011;48440;51.224;22.506;2022-12-07T04:58:43;17.60;;;8.35;;
62401;SDS011;48440;51.224;22.506;2022-12-07T05:01:14;15.07;;;6.85;;
62401;SDS011;48440;51.224;22.506;2022-12-07T05:03:41;15.35;;;7.78;;
62401;SDS011;48440;51.224;22.506;2022-12-07T05:06:07;17.38;;;7.22;;
62401;SDS011;48440;51.224;22.506;2022-12-07T05:08:33;15.95;;;7.47;;
62401;SDS011;48440;51.224;22.506;2022-12-07T05:10:59;12.65;;;6.47;;
62401;SDS011;48440;51.224;22.506;2022-12-07T05:13:25;14.82;;;7.03;;
62401;SDS011;48440;51.224;22.506;2022-12-07T05:15:51;16.50;;;7.13;;
62401;SDS011;48440;51.224;22.506;2022-12-07T05:18:16;14.13;;;6.85;;
62401;SDS011;48440;51.224;22.506;2022-12-07T05:20:42;13.68;;;6.25;;
62401;SDS011;48440;51.224;22.506;2022-12-07T05:23:09;14.40;;;6.70;;
62401;SDS011;48440;51.224;22.506;2022-12-07T05:25:34;14.00;;;6.65;;
62401;SDS011;48440;51.224;22.506;2022-12-07T05:28:01;17.38;;;7.15;;
62401;SDS011;48440;51.224;22.506;2022-12-07T05:30:26;15.57;;;7.03;;
62401;SDS011;48440;51.224;22.506;2022-12-07T05:32:52;10.60;;;6.32;;
62401;SDS011;48440;51.224;22.506;2022-12-07T05:35:18;12.23;;;6.47;;
62401;SDS011;48440;51.224;22.506;2022-12-07T05:37:44;13.63;;;6.80;;
62401;SDS011;48440;51.224;22.506;2022-12-07T05:40:10;9.50;;;6.00;;
62401;SDS011;48440;51.224;22.506;2022-12-07T05:42:37;14.23;;;6.03;;
62401;SDS011;48440;51.224;22.506;2022-12-07T05:45:03;11.05;;;5.93;;
62401;SDS011;48440;51.224;22.506;2022-12-07T05:47:29;11.18;;;6.50;;
62401;SDS011;48440;51.224;22.506;2022-12-07T05:49:54;14.25;;;6.32;;
62401;SDS011;48440;51.224;22.506;2022-12-07T05:52:20;13.38;;;6.57;;
62401;SDS011;48440;51.224;22.506;2022-12-07T05:54:46;13.35;;;6.30;;
62401;SDS011;48440;51.224;22.506;2022-12-07T05:57:12;12.48;;;5.85;;
62401;SDS011;48440;51.224;22.506;2022-12-07T05:59:37;12.27;;;6.78;;
62401;SDS011;48440;51.224;22.506;2022-12-07T06:02:04;11.05;;;5.47;;
62401;SDS011;48440;51.224;22.506;2022-12-07T06:04:32;12.77;;;5.82;;
62401;SDS011;48440;51.224;22.506;2022-12-07T06:07:01;11.98;;;6.60;;
62401;SDS011;48440;51.224;22.506;2022-12-07T06:09:27;10.98;;;6.13;;
62401;SDS011;48440;51.224;22.506;2022-12-07T06:11:53;13.70;;;6.57;;
62401;SDS011;48440;51.224;22.506;2022-12-07T06:14:38;9.93;;;6.38;;
62401;SDS011;48440;51.224;22.506;2022-12-07T06:17:04;11.85;;;6.43;;
62401;SDS011;48440;51.224;22.506;2022-12-07T06:19:30;11.65;;;6.10;;
62401;SDS011;48440;51.224;22.506;2022-12-07T06:21:56;12.82;;;7.32;;
62401;SDS011;48440;51.224;22.506;2022-12-07T06:24:21;12.55;;;6.07;;
62401;SDS011;48440;51.224;22.506;2022-12-07T06:26:47;9.55;;;6.18;;
62401;SDS011;48440;51.224;22.506;2022-12-07T06:29:13;11.00;;;6.65;;
62401;SDS011;48440;51.224;22.506;2022-12-07T06:31:40;11.75;;;6.70;;
62401;SDS011;48440;51.224;22.506;2022-12-07T06:34:10;12.05;;;6.07;;
62401;SDS011;48440;51.224;22.506;2022-12-07T06:36:37;11.80;;;5.80;;
62401;SDS011;48440;51.224;22.506;2022-12-07T06:39:03;15.38;;;5.30;;
62401;SDS011;48440;51.224;22.506;2022-12-07T06:41:29;10.60;;;5.57;;
62401;SDS011;48440;51.224;22.506;2022-12-07T06:43:55;9.68;;;5.43;;
62401;SDS011;48440;51.224;22.506;2022-12-07T06:46:20;12.38;;;5.30;;
62401;SDS011;48440;51.224;22.506;2022-12-07T06:48:46;10.90;;;5.18;;
62401;SDS011;48440;51.224;22.506;2022-12-07T06:51:11;12.25;;;5.75;;
62401;SDS011;48440;51.224;22.506;2022-12-07T06:53:37;11.23;;;5.25;;
62401;SDS011;48440;51.224;22.506;2022-12-07T06:56:03;12.10;;;5.45;;
62401;SDS011;48440;51.224;22.506;2022-12-07T06:58:29;12.20;;;5.40;;
62401;SDS011;48440;51.224;22.506;2022-12-07T07:00:54;14.85;;;5.90;;
62401;SDS011;48440;51.224;22.506;2022-12-07T07:03:20;10.60;;;5.60;;
62401;SDS011;48440;51.224;22.506;2022-12-07T07:05:45;11.43;;;5.45;;
62401;SDS011;48440;51.224;22.506;2022-12-07T07:08:11;12.93;;;6.38;;
62401;SDS011;48440;51.224;22.506;2022-12-07T07:10:37;12.45;;;5.47;;
62401;SDS011;48440;51.224;22.506;2022-12-07T07:13:04;14.27;;;6.22;;
62401;SDS011;48440;51.224;22.506;2022-12-07T07:15:29;17.17;;;7.28;;
62401;SDS011;48440;51.224;22.506;2022-12-07T07:17:55;19.45;;;6.38;;
62401;SDS011;48440;51.224;22.506;2022-12-07T07:20:21;16.13;;;6.68;;
62401;SDS011;48440;51.224;22.506;2022-12-07T07:22:47;12.73;;;6.53;;
62401;SDS011;48440;51.224;22.506;2022-12-07T07:25:13;13.27;;;6.82;;
62401;SDS011;48440;51.224;22.506;2022-12-07T07:27:38;13.20;;;6.18;;
62401;SDS011;48440;51.224;22.506;2022-12-07T07:30:04;12.98;;;6.57;;
62401;SDS011;48440;51.224;22.506;2022-12-07T07:32:30;12.07;;;5.80;;
62401;SDS011;48440;51.224;22.506;2022-12-07T07:34:55;12.40;;;6.07;;
62401;SDS011;48440;51.224;22.506;2022-12-07T07:37:20;13.43;;;5.80;;
62401;SDS011;48440;51.224;22.506;2022-12-07T07:39:46;17.42;;;6.28;;
62401;SDS011;48440;51.224;22.506;2022-12-07T07:42:11;18.42;;;6.72;;
62401;SDS011;48440;51.224;22.506;2022-12-07T07:44:37;15.38;;;6.88;;
62401;SDS011;48440;51.224;22.506;2022-12-07T07:47:02;13.63;;;7.40;;
62401;SDS011;48440;51.224;22.506;2022-12-07T07:49:28;16.88;;;7.13;;
62401;SDS011;48440;51.224;22.506;2022-12-07T07:51:53;15.85;;;7.75;;
62401;SDS011;48440;51.224;22.506;2022-12-07T07:54:19;17.63;;;7.70;;
62401;SDS011;48440;51.224;22.506;2022-12-07T07:56:44;18.38;;;8.93;;
62401;SDS011;48440;51.224;22.506;2022-12-07T07:59:10;20.85;;;8.80;;
62401;SDS011;48440;51.224;22.506;2022-12-07T08:01:35;21.27;;;8.25;;
62401;SDS011;48440;51.224;22.506;2022-12-07T08:04:00;18.98;;;8.80;;
62401;SDS011;48440;51.224;22.506;2022-12-07T08:06:26;18.77;;;8.52;;
62401;SDS011;48440;51.224;22.506;2022-12-07T08:08:52;21.35;;;8.90;;
62401;SDS011;48440;51.224;22.506;2022-12-07T08:11:17;18.48;;;8.98;;
62401;SDS011;48440;51.224;22.506;2022-12-07T08:13:44;19.70;;;9.13;;
62401;SDS011;48440;51.224;22.506;2022-12-07T08:16:14;20.20;;;9.18;;
62401;SDS011;48440;51.224;22.506;2022-12-07T08:18:40;21.70;;;8.27;;
62401;SDS011;48440;51.224;22.506;2022-12-07T08:21:07;18.13;;;8.02;;
62401;SDS011;48440;51.224;22.506;2022-12-07T08:23:37;16.58;;;9.20;;
62401;SDS011;48440;51.224;22.506;2022-12-07T08:26:12;21.60;;;9.00;;
62401;SDS011;48440;51.224;22.506;2022-12-07T08:28:39;21.42;;;9.73;;
62401;SDS011;48440;51.224;22.506;2022-12-07T08:31:06;20.75;;;9.27;;
62401;SDS011;48440;51.224;22.506;2022-12-07T08:33:40;20.35;;;8.93;;
62401;SDS011;48440;51.224;22.506;2022-12-07T08:36:07;23.77;;;9.30;;
62401;SDS011;48440;51.224;22.506;2022-12-07T08:38:34;20.83;;;9.90;;
62401;SDS011;48440;51.224;22.506;2022-12-07T08:41:01;19.55;;;8.93;;
62401;SDS011;48440;51.224;22.506;2022-12-07T08:43:26;17.10;;;8.88;;
62401;SDS011;48440;51.224;22.506;2022-12-07T08:45:54;19.25;;;9.32;;
62401;SDS011;48440;51.224;22.506;2022-12-07T08:48:26;13.63;;;8.15;;
62401;SDS011;48440;51.224;22.506;2022-12-07T08:50:51;24.40;;;10.20;;
62401;SDS011;48440;51.224;22.506;2022-12-07T08:53:17;19.20;;;8.82;;
62401;SDS011;48440;51.224;22.506;2022-12-07T08:55:43;18.33;;;9.52;;
62401;SDS011;48440;51.224;22.506;2022-12-07T08:58:11;22.80;;;9.98;;
62401;SDS011;48440;51.224;22.506;2022-12-07T09:00:37;21.83;;;9.95;;
62401;SDS011;48440;51.224;22.506;2022-12-07T09:03:02;21.50;;;10.25;;
62401;SDS011;48440;51.224;22.506;2022-12-07T09:05:28;20.27;;;8.80;;
62401;SDS011;48440;51.224;22.506;2022-12-07T09:07:54;19.77;;;9.20;;
62401;SDS011;48440;51.224;22.506;2022-12-07T09:10:22;20.30;;;8.63;;
62401;SDS011;48440;51.224;22.506;2022-12-07T09:12:48;19.70;;;9.10;;
62401;SDS011;48440;51.224;22.506;2022-12-07T09:15:14;20.98;;;9.25;;
62401;SDS011;48440;51.224;22.506;2022-12-07T09:17:39;21.35;;;9.63;;
62401;SDS011;48440;51.224;22.506;2022-12-07T09:20:05;20.42;;;8.35;;
62401;SDS011;48440;51.224;22.506;2022-12-07T09:22:31;17.50;;;8.55;;
62401;SDS011;48440;51.224;22.506;2022-12-07T09:24:57;18.00;;;8.63;;
62401;SDS011;48440;51.224;22.506;2022-12-07T09:27:23;16.70;;;7.65;;
62401;SDS011;48440;51.224;22.506;2022-12-07T09:29:49;15.32;;;8.25;;
62401;SDS011;48440;51.224;22.506;2022-12-07T09:32:14;14.70;;;8.15;;
62401;SDS011;48440;51.224;22.506;2022-12-07T09:34:40;20.92;;;8.20;;
62401;SDS011;48440;51.224;22.506;2022-12-07T09:37:05;17.95;;;8.02;;
62401;SDS011;48440;51.224;22.506;2022-12-07T09:39:31;15.05;;;8.05;;
62401;SDS011;48440;51.224;22.506;2022-12-07T09:41:57;21.08;;;8.95;;
62401;SDS011;48440;51.224;22.506;2022-12-07T09:44:25;16.20;;;7.45;;
62401;SDS011;48440;51.224;22.506;2022-12-07T09:46:52;15.52;;;8.13;;
62401;SDS011;48440;51.224;22.506;2022-12-07T09:49:21;16.85;;;8.30;;
62401;SDS011;48440;51.224;22.506;2022-12-07T09:51:59;22.80;;;9.00;;
62401;SDS011;48440;51.224;22.506;2022-12-07T09:54:43;18.92;;;8.85;;
62401;SDS011;48440;51.224;22.506;2022-12-07T09:57:12;16.92;;;9.10;;
62401;SDS011;48440;51.224;22.506;2022-12-07T09:59:38;16.23;;;7.88;;
62401;SDS011;48440;51.224;22.506;2022-12-07T10:04:52;16.02;;;8.68;;
62401;SDS011;48440;51.224;22.506;2022-12-07T10:07:18;20.40;;;8.82;;
62401;SDS011;48440;51.224;22.506;2022-12-07T10:09:44;16.17;;;7.55;;
62401;SDS011;48440;51.224;22.506;2022-12-07T10:12:10;18.38;;;8.38;;
62401;SDS011;48440;51.224;22.506;2022-12-07T10:14:38;21.02;;;10.15;;
62401;SDS011;48440;51.224;22.506;2022-12-07T10:22:36;18.77;;;9.50;;
62401;SDS011;48440;51.224;22.506;2022-12-07T10:25:09;14.80;;;8.45;;
62401;SDS011;48440;51.224;22.506;2022-12-07T10:27:44;18.20;;;8.93;;
62401;SDS011;48440;51.224;22.506;2022-12-07T10:30:26;15.95;;;8.23;;
62401;SDS011;48440;51.224;22.506;2022-12-07T10:32:51;20.25;;;9.10;;
62401;SDS011;48440;51.224;22.506;2022-12-07T10:37:46;20.63;;;10.10;;
62401;SDS011;48440;51.224;22.506;2022-12-07T10:40:26;20.50;;;9.88;;
62401;SDS011;48440;51.224;22.506;2022-12-07T10:45:54;20.38;;;9.55;;
62401;SDS011;48440;51.224;22.506;2022-12-07T11:10:50;25.88;;;10.57;;
62401;SDS011;48440;51.224;22.506;2022-12-07T11:13:52;20.48;;;9.50;;
62401;SDS011;48440;51.224;22.506;2022-12-07T11:21:58;26.48;;;11.30;;
62401;SDS011;48440;51.224;22.506;2022-12-07T11:24:46;20.73;;;10.75;;
62401;SDS011;48440;51.224;22.506;2022-12-07T11:30:19;21.10;;;10.07;;
62401;SDS011;48440;51.224;22.506;2022-12-07T11:40:56;22.92;;;10.48;;
62401;SDS011;48440;51.224;22.506;2022-12-07T11:46:11;25.33;;;11.00;;
62401;SDS011;48440;51.224;22.506;2022-12-07T11:48:41;27.05;;;11.23;;
62401;SDS011;48440;51.224;22.506;2022-12-07T11:51:11;20.73;;;10.85;;
62401;SDS011;48440;51.224;22.506;2022-12-07T11:53:45;24.65;;;11.48;;
62401;SDS011;48440;51.224;22.506;2022-12-07T11:56:16;27.23;;;11.38;;
62401;SDS011;48440;51.224;22.506;2022-12-07T12:06:34;24.20;;;11.35;;
62401;SDS011;48440;51.224;22.506;2022-12-07T12:22:39;25.00;;;11.25;;
62401;SDS011;48440;51.224;22.506;2022-12-07T12:27:50;24.08;;;10.55;;
62401;SDS011;48440;51.224;22.506;2022-12-07T12:30:38;26.67;;;10.77;;
62401;SDS011;48440;51.224;22.506;2022-12-07T12:54:28;31.23;;;13.35;;
62401;SDS011;48440;51.224;22.506;2022-12-07T12:59:26;30.25;;;12.13;;
62401;SDS011;48440;51.224;22.506;2022-12-07T13:01:56;22.88;;;10.75;;
62401;SDS011;48440;51.224;22.506;2022-12-07T13:04:55;26.60;;;11.40;;
62401;SDS011;48440;51.224;22.506;2022-12-07T13:36:53;23.20;;;9.98;;
62401;SDS011;48440;51.224;22.506;2022-12-07T13:39:19;29.77;;;10.40;;
62401;SDS011;48440;51.224;22.506;2022-12-07T13:41:54;24.55;;;11.20;;
62401;SDS011;48440;51.224;22.506;2022-12-07T13:44:25;27.20;;;10.48;;
62401;SDS011;48440;51.224;22.506;2022-12-07T13:49:30;21.67;;;9.73;;
62401;SDS011;48440;51.224;22.506;2022-12-07T13:57:15;22.65;;;10.55;;
62401;SDS011;48440;51.224;22.506;2022-12-07T13:59:42;19.35;;;10.30;;
62401;SDS011;48440;51.224;22.506;2022-12-07T14:02:17;23.23;;;11.35;;
62401;SDS011;48440;51.224;22.506;2022-12-07T14:04:45;26.38;;;11.25;;
62401;SDS011;48440;51.224;22.506;2022-12-07T14:10:31;28.98;;;10.75;;
62401;SDS011;48440;51.224;22.506;2022-12-07T14:13:01;30.10;;;11.98;;
62401;SDS011;48440;51.224;22.506;2022-12-07T14:15:29;29.02;;;12.63;;
62401;SDS011;48440;51.224;22.506;2022-12-07T14:17:57;23.27;;;12.32;;
62401;SDS011;48440;51.224;22.506;2022-12-07T14:20:38;33.90;;;13.50;;
62401;SDS011;48440;51.224;22.506;2022-12-07T14:23:06;26.63;;;12.40;;
62401;SDS011;48440;51.224;22.506;2022-12-07T14:25:49;27.00;;;13.23;;
62401;SDS011;48440;51.224;22.506;2022-12-07T14:28:30;28.88;;;13.70;;
62401;SDS011;48440;51.224;22.506;2022-12-07T14:30:57;30.80;;;14.73;;
62401;SDS011;48440;51.224;22.506;2022-12-07T14:33:23;34.40;;;14.93;;
62401;SDS011;48440;51.224;22.506;2022-12-07T14:35:49;34.50;;;13.45;;
62401;SDS011;48440;51.224;22.506;2022-12-07T14:38:15;33.60;;;14.05;;
62401;SDS011;48440;51.224;22.506;2022-12-07T14:40:43;33.45;;;13.43;;
62401;SDS011;48440;51.224;22.506;2022-12-07T14:43:10;32.85;;;14.35;;
62401;SDS011;48440;51.224;22.506;2022-12-07T14:45:37;27.30;;;13.07;;
62401;SDS011;48440;51.224;22.506;2022-12-07T14:48:04;35.63;;;11.93;;
62401;SDS011;48440;51.224;22.506;2022-12-07T14:50:30;25.10;;;12.32;;
62401;SDS011;48440;51.224;22.506;2022-12-07T14:53:03;22.70;;;11.23;;
62401;SDS011;48440;51.224;22.506;2022-12-07T14:55:37;23.55;;;11.52;;
62401;SDS011;48440;51.224;22.506;2022-12-07T14:58:02;22.02;;;10.90;;
62401;SDS011;48440;51.224;22.506;2022-12-07T15:00:28;22.83;;;11.60;;
62401;SDS011;48440;51.224;22.506;2022-12-07T15:02:54;24.77;;;10.73;;
62401;SDS011;48440;51.224;22.506;2022-12-07T15:05:20;25.27;;;10.60;;
62401;SDS011;48440;51.224;22.506;2022-12-07T15:07:46;23.88;;;10.85;;
62401;SDS011;48440;51.224;22.506;2022-12-07T15:10:17;22.02;;;10.20;;
62401;SDS011;48440;51.224;22.506;2022-12-07T15:12:48;21.65;;;9.57;;
62401;SDS011;48440;51.224;22.506;2022-12-07T15:15:13;23.58;;;11.30;;
62401;SDS011;48440;51.224;22.506;2022-12-07T15:17:39;24.30;;;11.82;;
62401;SDS011;48440;51.224;22.506;2022-12-07T15:20:05;28.65;;;10.48;;
62401;SDS011;48440;51.224;22.506;2022-12-07T15:22:36;32.00;;;12.70;;
62401;SDS011;48440;51.224;22.506;2022-12-07T15:25:01;29.95;;;12.40;;
62401;SDS011;48440;51.224;22.506;2022-12-07T15:27:30;24.08;;;12.10;;
62401;SDS011;48440;51.224;22.506;2022-12-07T15:29:55;31.27;;;14.38;;
62401;SDS011;48440;51.224;22.506;2022-12-07T15:32:21;32.80;;;14.27;;
62401;SDS011;48440;51.224;22.506;2022-12-07T15:34:47;28.77;;;13.25;;
62401;SDS011;48440;51.224;22.506;2022-12-07T15:37:13;31.02;;;14.02;;
62401;SDS011;48440;51.224;22.506;2022-12-07T15:39:39;31.02;;;13.70;;
62401;SDS011;48440;51.224;22.506;2022-12-07T15:42:04;31.33;;;13.07;;
62401;SDS011;48440;51.224;22.506;2022-12-07T15:44:30;25.85;;;11.70;;
62401;SDS011;48440;51.224;22.506;2022-12-07T15:47:14;26.67;;;12.82;;
62401;SDS011;48440;51.224;22.506;2022-12-07T15:49:39;37.65;;;14.63;;
62401;SDS011;48440;51.224;22.506;2022-12-07T15:52:04;35.22;;;13.23;;
62401;SDS011;48440;51.224;22.506;2022-12-07T15:54:30;34.35;;;13.85;;
62401;SDS011;48440;51.224;22.506;2022-12-07T15:56:57;30.75;;;13.48;;
62401;SDS011;48440;51.224;22.506;2022-12-07T15:59:22;37.60;;;14.95;;
62401;SDS011;48440;51.224;22.506;2022-12-07T16:01:48;38.25;;;15.95;;
62401;SDS011;48440;51.224;22.506;2022-12-07T16:04:13;30.98;;;13.60;;
62401;SDS011;48440;51.224;22.506;2022-12-07T16:06:39;39.00;;;17.02;;
62401;SDS011;48440;51.224;22.506;2022-12-07T16:09:05;38.00;;;14.85;;
62401;SDS011;48440;51.224;22.506;2022-12-07T16:11:30;35.25;;;14.70;;
62401;SDS011;48440;51.224;22.506;2022-12-07T16:13:56;41.05;;;16.92;;
62401;SDS011;48440;51.224;22.506;2022-12-07T16:16:22;36.90;;;15.95;;
62401;SDS011;48440;51.224;22.506;2022-12-07T16:18:48;33.95;;;14.70;;
62401;SDS011;48440;51.224;22.506;2022-12-07T16:21:15;32.65;;;13.85;;
62401;SDS011;48440;51.224;22.506;2022-12-07T16:23:41;37.63;;;13.60;;
62401;SDS011;48440;51.224;22.506;2022-12-07T16:26:08;36.30;;;15.18;;
62401;SDS011;48440;51.224;22.506;2022-12-07T16:28:41;39.33;;;15.10;;
62401;SDS011;48440;51.224;22.506;2022-12-07T16:31:08;35.67;;;15.80;;
62401;SDS011;48440;51.224;22.506;2022-12-07T16:33:37;34.13;;;15.50;;
62401;SDS011;48440;51.224;22.506;2022-12-07T16:36:03;39.92;;;15.32;;
62401;SDS011;48440;51.224;22.506;2022-12-07T16:38:30;32.72;;;16.13;;
62401;SDS011;48440;51.224;22.506;2022-12-07T16:40:56;36.92;;;16.48;;
62401;SDS011;48440;51.224;22.506;2022-12-07T16:43:21;37.70;;;17.23;;
62401;SDS011;48440;51.224;22.506;2022-12-07T16:45:47;39.90;;;16.83;;
62401;SDS011;48440;51.224;22.506;2022-12-07T16:48:13;40.55;;;16.95;;
62401;SDS011;48440;51.224;22.506;2022-12-07T16:50:40;39.80;;;16.88;;
62401;SDS011;48440;51.224;22.506;2022-12-07T16:53:06;38.30;;;16.15;;
62401;SDS011;48440;51.224;22.506;2022-12-07T16:55:39;39.35;;;17.13;;
62401;SDS011;48440;51.224;22.506;2022-12-07T16:58:08;44.97;;;19.70;;
62401;SDS011;48440;51.224;22.506;2022-12-07T17:00:34;43.53;;;18.23;;
62401;SDS011;48440;51.224;22.506;2022-12-07T17:03:01;46.92;;;19.23;;
62401;SDS011;48440;51.224;22.506;2022-12-07T17:05:27;41.72;;;17.63;;
62401;SDS011;48440;51.224;22.506;2022-12-07T17:07:55;47.13;;;20.17;;
62401;SDS011;48440;51.224;22.506;2022-12-07T17:10:22;41.10;;;18.25;;
62401;SDS011;48440;51.224;22.506;2022-12-07T17:12:49;37.20;;;16.75;;
62401;SDS011;48440;51.224;22.506;2022-12-07T17:15:15;38.55;;;16.30;;
62401;SDS011;48440;51.224;22.506;2022-12-07T17:17:46;37.70;;;16.63;;
62401;SDS011;48440;51.224;22.506;2022-12-07T17:20:16;37.53;;;16.02;;
62401;SDS011;48440;51.224;22.506;2022-12-07T17:22:42;40.35;;;17.20;;
62401;SDS011;48440;51.224;22.506;2022-12-07T17:25:08;43.83;;;17.30;;